Terminal Aerodrome Forecast
Issued by NWS Wilmington, OH

Home | Current Version | Previous Version | Text Only | Print | Product List | Glossary On
Versions: 1 2 3 4 5 6 7 8 9 10 11 12 13 14 15 16 17 18 19 20 21 22 23 24 25 26 27 28 29
000
FTUS41 KILN 011500 AAB
TAFCMH
TAF AMD
KCMH 011514Z 0115/0212 12008KT P6SM VCSH SCT006 OVC015
     FM011700 12010KT P6SM SCT050 OVC080
     FM012000 15010KT 3SM -RA BR BKN020 OVC040
      TEMPO 0120/0124 2SM -RA BR OVC012
     FM020400 24015KT P6SM VCSH OVC015
     FM021000 30015G25KT P6SM OVC018=

USA.gov is the U.S. government's official web portal to all federal, state and local government web resources and services.